Terminal Aerodrome Forecast
Issued by NWS Charleston, WV

Current Version | Previous Version | Graphics & Text | Print | Product List | Glossary On
Versions: 1 2 3 4 5 6 7 8 9 10 11 12 13 14 15 16 17 18 19 20 21 22 23 24
689
FTUS41 KRLX 220245 AAA
TAFEKN
TAF AMD
KEKN 220245Z 2202/2224 30003KT P6SM BKN060
     FM220500 33003KT P6SM VCSH BKN050
     FM220800 35003KT 6SM SHRA OVC015
     FM221600 35004KT 4SM SHRA OVC015
     FM222000 36005KT 6SM SHRA OVC015=

USA.gov is the U.S. government's official web portal to all federal, state and local government web resources and services.